カンクン の空港の天気 - METARとTAF

カンクン国際空港 ( MMUN / CUN ) - メキシコ キンタナ・ロー州カンクン
飛行場実況気象(Metar)
観測時間11/19 07:46 CST (11/19 13:46 UTC)
風向・風速西北西 2m/s
視程10km以上
天気現象
全天の4割程度の雲 雲底高度 460m
全天の4割程度の雲 雲底高度 550m
気温22℃
湿度100%
気圧1016hPa
METARMMUN 191346Z 30004KT 7SM SCT015 SCT018 22/22 A3000 RMK 8/800 MDT CU SE
過去の天気等 Google飛行場航空写真 Wunderground天気予報

過去48時間のMETAR

飛行場予報(TAF)
発表時間: 11/19 05:21 CST (11/19 11:21 UTC)
予報対象時間: 19日6時 CST ~ 20日12時 CST
風向・風速北北西 3m/s
視程10km以上
天気現象煙霧
全天の4割程度の雲 雲底高度 460m
19日12時 CST から
風向・風速北 6m/s
視程10km以上
全天の8割程度の雲 雲底高度 460m
20日0時 CST から
風向・風速北 4m/s
視程10km以上
全天の4割程度の雲 雲底高度 460m
20日3時 CST から 確率 40% で
視程8,050m
天気現象弱い雨
全天の8割程度の積乱雲 雲底高度 460m
20日11時 CST から
風向・風速北東 6m/s
視程10km以上
全天の8割程度の積乱雲 雲底高度 460m
TAF MMUN 191121Z 1912/2018 34005KT 6SM HZ SCT015 TX28/1920Z TN19/1912Z
FM191800 36012KT P6SM BKN015
FM200600 36008KT P6SM SCT015
PROB40 2009/2013 5SM -RA BKN015CB
FM201700 04012KT P6SM BKN015CB